sensor_id;sensor_type;location;lat;lon;timestamp;temperature;humidity
14095;DHT22;18096;48.142;16.290;2022-08-03T00:01:21;20.70;71.00
14095;DHT22;18096;48.142;16.290;2022-08-03T00:03:46;20.60;70.80
14095;DHT22;18096;48.142;16.290;2022-08-03T00:06:12;20.60;70.60
14095;DHT22;18096;48.142;16.290;2022-08-03T00:08:38;20.50;70.60
14095;DHT22;18096;48.142;16.290;2022-08-03T00:11:03;20.50;70.90
14095;DHT22;18096;48.142;16.290;2022-08-03T00:13:31;20.50;71.30
14095;DHT22;18096;48.142;16.290;2022-08-03T00:15:57;20.50;71.30
14095;DHT22;18096;48.142;16.290;2022-08-03T00:18:22;20.50;71.10
14095;DHT22;18096;48.142;16.290;2022-08-03T00:20:48;20.50;71.00
14095;DHT22;18096;48.142;16.290;2022-08-03T00:23:14;20.40;71.00
14095;DHT22;18096;48.142;16.290;2022-08-03T00:25:39;20.40;71.10
14095;DHT22;18096;48.142;16.290;2022-08-03T00:28:05;20.40;71.10
14095;DHT22;18096;48.142;16.290;2022-08-03T00:30:31;20.40;71.20
14095;DHT22;18096;48.142;16.290;2022-08-03T00:32:57;20.40;71.30
14095;DHT22;18096;48.142;16.290;2022-08-03T00:35:24;20.40;71.40
14095;DHT22;18096;48.142;16.290;2022-08-03T00:37:49;20.40;71.60
14095;DHT22;18096;48.142;16.290;2022-08-03T00:40:17;20.40;71.80
14095;DHT22;18096;48.142;16.290;2022-08-03T00:42:51;20.30;71.70
14095;DHT22;18096;48.142;16.290;2022-08-03T00:45:18;20.30;71.80
14095;DHT22;18096;48.142;16.290;2022-08-03T00:47:44;20.30;72.00
14095;DHT22;18096;48.142;16.290;2022-08-03T00:50:10;20.30;72.30
14095;DHT22;18096;48.142;16.290;2022-08-03T00:52:36;20.30;72.50
14095;DHT22;18096;48.142;16.290;2022-08-03T00:55:02;20.30;72.70
14095;DHT22;18096;48.142;16.290;2022-08-03T00:57:29;20.30;72.80
14095;DHT22;18096;48.142;16.290;2022-08-03T00:59:56;20.30;73.00
14095;DHT22;18096;48.142;16.290;2022-08-03T01:02:22;20.20;72.60
14095;DHT22;18096;48.142;16.290;2022-08-03T01:04:47;20.10;72.20
14095;DHT22;18096;48.142;16.290;2022-08-03T01:10:09;20.10;72.20
14095;DHT22;18096;48.142;16.290;2022-08-03T01:12:51;20.10;71.90
14095;DHT22;18096;48.142;16.290;2022-08-03T01:18:19;20.10;71.90
14095;DHT22;18096;48.142;16.290;2022-08-03T01:20:49;20.10;72.20
14095;DHT22;18096;48.142;16.290;2022-08-03T01:26:26;20.10;72.10
14095;DHT22;18096;48.142;16.290;2022-08-03T01:29:31;20.00;71.90
14095;DHT22;18096;48.142;16.290;2022-08-03T01:32:00;20.00;72.00
14095;DHT22;18096;48.142;16.290;2022-08-03T01:34:31;19.90;71.90
14095;DHT22;18096;48.142;16.290;2022-08-03T01:37:02;19.90;72.10
14095;DHT22;18096;48.142;16.290;2022-08-03T01:39:31;19.90;72.30
14095;DHT22;18096;48.142;16.290;2022-08-03T01:42:03;19.90;72.30
14095;DHT22;18096;48.142;16.290;2022-08-03T01:44:34;19.90;72.50
14095;DHT22;18096;48.142;16.290;2022-08-03T01:47:02;19.80;72.30
14095;DHT22;18096;48.142;16.290;2022-08-03T01:49:32;19.80;72.40
14095;DHT22;18096;48.142;16.290;2022-08-03T01:51:59;19.80;72.70
14095;DHT22;18096;48.142;16.290;2022-08-03T01:54:26;19.80;72.70
14095;DHT22;18096;48.142;16.290;2022-08-03T01:56:55;19.80;72.80
14095;DHT22;18096;48.142;16.290;2022-08-03T01:59:22;19.80;72.70
14095;DHT22;18096;48.142;16.290;2022-08-03T02:01:50;19.80;72.90
14095;DHT22;18096;48.142;16.290;2022-08-03T02:04:17;19.80;72.70
14095;DHT22;18096;48.142;16.290;2022-08-03T02:06:45;19.70;72.60
14095;DHT22;18096;48.142;16.290;2022-08-03T02:09:14;19.70;72.60
14095;DHT22;18096;48.142;16.290;2022-08-03T02:11:41;19.70;72.60
14095;DHT22;18096;48.142;16.290;2022-08-03T02:14:08;19.80;72.80
14095;DHT22;18096;48.142;16.290;2022-08-03T02:16:35;19.70;73.00
14095;DHT22;18096;48.142;16.290;2022-08-03T02:19:04;19.70;72.90
14095;DHT22;18096;48.142;16.290;2022-08-03T02:21:34;19.70;73.00
14095;DHT22;18096;48.142;16.290;2022-08-03T02:24:01;19.70;73.10
14095;DHT22;18096;48.142;16.290;2022-08-03T02:26:29;19.70;73.00
14095;DHT22;18096;48.142;16.290;2022-08-03T02:28:56;19.60;72.70
14095;DHT22;18096;48.142;16.290;2022-08-03T02:31:27;19.60;73.00
14095;DHT22;18096;48.142;16.290;2022-08-03T02:33:58;19.60;73.30
14095;DHT22;18096;48.142;16.290;2022-08-03T02:36:28;19.60;73.60
14095;DHT22;18096;48.142;16.290;2022-08-03T02:38:57;19.60;73.40
14095;DHT22;18096;48.142;16.290;2022-08-03T02:41:28;19.60;73.60
14095;DHT22;18096;48.142;16.290;2022-08-03T02:43:56;19.50;73.70
14095;DHT22;18096;48.142;16.290;2022-08-03T02:46:26;19.50;73.80
14095;DHT22;18096;48.142;16.290;2022-08-03T02:48:54;19.40;73.80
14095;DHT22;18096;48.142;16.290;2022-08-03T02:51:21;19.40;73.90
14095;DHT22;18096;48.142;16.290;2022-08-03T02:53:47;19.40;74.00
14095;DHT22;18096;48.142;16.290;2022-08-03T02:56:14;19.40;74.10
14095;DHT22;18096;48.142;16.290;2022-08-03T02:58:42;19.30;73.90
14095;DHT22;18096;48.142;16.290;2022-08-03T03:01:10;19.30;73.90
14095;DHT22;18096;48.142;16.290;2022-08-03T03:03:37;19.30;73.90
14095;DHT22;18096;48.142;16.290;2022-08-03T03:06:04;19.30;74.10
14095;DHT22;18096;48.142;16.290;2022-08-03T03:08:31;19.30;74.50
14095;DHT22;18096;48.142;16.290;2022-08-03T03:10:59;19.30;74.60
14095;DHT22;18096;48.142;16.290;2022-08-03T03:13:27;19.30;74.90
14095;DHT22;18096;48.142;16.290;2022-08-03T03:15:53;19.30;74.80
14095;DHT22;18096;48.142;16.290;2022-08-03T03:18:21;19.20;74.90
14095;DHT22;18096;48.142;16.290;2022-08-03T03:20:47;19.20;74.80
14095;DHT22;18096;48.142;16.290;2022-08-03T03:23:15;19.20;74.70
14095;DHT22;18096;48.142;16.290;2022-08-03T03:25:41;19.20;74.90
14095;DHT22;18096;48.142;16.290;2022-08-03T03:28:09;19.20;74.90
14095;DHT22;18096;48.142;16.290;2022-08-03T03:30:35;19.20;74.90
14095;DHT22;18096;48.142;16.290;2022-08-03T03:33:01;19.20;74.70
14095;DHT22;18096;48.142;16.290;2022-08-03T03:35:27;19.10;74.70
14095;DHT22;18096;48.142;16.290;2022-08-03T03:37:53;19.10;74.80
14095;DHT22;18096;48.142;16.290;2022-08-03T03:40:20;19.10;75.00
14095;DHT22;18096;48.142;16.290;2022-08-03T03:42:46;19.10;75.30
14095;DHT22;18096;48.142;16.290;2022-08-03T03:45:12;19.00;75.50
14095;DHT22;18096;48.142;16.290;2022-08-03T03:47:38;19.00;75.60
14095;DHT22;18096;48.142;16.290;2022-08-03T03:50:04;19.00;75.60
14095;DHT22;18096;48.142;16.290;2022-08-03T03:52:31;19.00;75.60
14095;DHT22;18096;48.142;16.290;2022-08-03T03:54:57;18.90;75.70
14095;DHT22;18096;48.142;16.290;2022-08-03T03:57:22;18.90;76.10
14095;DHT22;18096;48.142;16.290;2022-08-03T03:59:48;18.80;76.10
14095;DHT22;18096;48.142;16.290;2022-08-03T04:02:14;18.90;75.90
14095;DHT22;18096;48.142;16.290;2022-08-03T04:04:40;18.80;76.00
14095;DHT22;18096;48.142;16.290;2022-08-03T04:07:25;18.80;75.90
14095;DHT22;18096;48.142;16.290;2022-08-03T04:10:16;18.80;75.60
14095;DHT22;18096;48.142;16.290;2022-08-03T04:13:03;18.80;75.60
14095;DHT22;18096;48.142;16.290;2022-08-03T04:15:33;18.90;75.90
14095;DHT22;18096;48.142;16.290;2022-08-03T04:18:00;18.90;75.90
14095;DHT22;18096;48.142;16.290;2022-08-03T04:20:30;18.90;75.80
14095;DHT22;18096;48.142;16.290;2022-08-03T04:22:57;19.00;75.90
14095;DHT22;18096;48.142;16.290;2022-08-03T04:25:27;19.00;76.00
14095;DHT22;18096;48.142;16.290;2022-08-03T04:27:55;19.10;76.10
14095;DHT22;18096;48.142;16.290;2022-08-03T04:30:25;19.10;76.10
14095;DHT22;18096;48.142;16.290;2022-08-03T04:32:53;19.20;76.80
14095;DHT22;18096;48.142;16.290;2022-08-03T04:35:19;19.20;76.00
14095;DHT22;18096;48.142;16.290;2022-08-03T04:37:47;19.30;75.90
14095;DHT22;18096;48.142;16.290;2022-08-03T04:40:29;19.30;76.10
14095;DHT22;18096;48.142;16.290;2022-08-03T04:42:57;19.40;75.60
14095;DHT22;18096;48.142;16.290;2022-08-03T04:45:24;19.50;75.70
14095;DHT22;18096;48.142;16.290;2022-08-03T04:47:51;19.60;75.80
14095;DHT22;18096;48.142;16.290;2022-08-03T04:50:18;19.70;76.00
14095;DHT22;18096;48.142;16.290;2022-08-03T04:52:44;19.90;75.20
14095;DHT22;18096;48.142;16.290;2022-08-03T04:55:10;20.00;75.10
14095;DHT22;18096;48.142;16.290;2022-08-03T04:57:35;20.20;74.80
14095;DHT22;18096;48.142;16.290;2022-08-03T05:00:02;20.30;74.70
14095;DHT22;18096;48.142;16.290;2022-08-03T05:02:28;20.40;74.60
14095;DHT22;18096;48.142;16.290;2022-08-03T05:04:55;20.60;74.30
14095;DHT22;18096;48.142;16.290;2022-08-03T05:07:20;20.80;73.70
14095;DHT22;18096;48.142;16.290;2022-08-03T05:09:46;20.90;73.10
14095;DHT22;18096;48.142;16.290;2022-08-03T05:12:11;21.00;71.60
14095;DHT22;18096;48.142;16.290;2022-08-03T05:14:37;21.00;72.10
14095;DHT22;18096;48.142;16.290;2022-08-03T05:17:08;21.10;72.10
14095;DHT22;18096;48.142;16.290;2022-08-03T05:19:34;21.30;72.00
14095;DHT22;18096;48.142;16.290;2022-08-03T05:22:00;21.40;71.60
14095;DHT22;18096;48.142;16.290;2022-08-03T05:24:26;21.50;71.20
14095;DHT22;18096;48.142;16.290;2022-08-03T05:26:52;21.70;71.20
14095;DHT22;18096;48.142;16.290;2022-08-03T05:29:17;21.70;70.60
14095;DHT22;18096;48.142;16.290;2022-08-03T05:31:43;21.70;70.70
14095;DHT22;18096;48.142;16.290;2022-08-03T05:34:09;21.80;70.50
14095;DHT22;18096;48.142;16.290;2022-08-03T05:36:34;22.00;69.70
14095;DHT22;18096;48.142;16.290;2022-08-03T05:39:00;22.00;68.90
14095;DHT22;18096;48.142;16.290;2022-08-03T05:41:26;22.00;68.60
14095;DHT22;18096;48.142;16.290;2022-08-03T05:43:52;22.00;68.50
14095;DHT22;18096;48.142;16.290;2022-08-03T05:46:18;22.00;69.10
14095;DHT22;18096;48.142;16.290;2022-08-03T05:48:45;22.10;69.30
14095;DHT22;18096;48.142;16.290;2022-08-03T05:51:11;22.20;68.70
14095;DHT22;18096;48.142;16.290;2022-08-03T05:53:41;22.10;68.60
14095;DHT22;18096;48.142;16.290;2022-08-03T05:56:07;22.10;68.80
14095;DHT22;18096;48.142;16.290;2022-08-03T05:58:33;22.10;68.20
14095;DHT22;18096;48.142;16.290;2022-08-03T06:00:58;22.20;68.30
14095;DHT22;18096;48.142;16.290;2022-08-03T06:03:24;22.20;68.50
14095;DHT22;18096;48.142;16.290;2022-08-03T06:05:50;22.20;69.00
14095;DHT22;18096;48.142;16.290;2022-08-03T06:08:15;22.30;68.00
14095;DHT22;18096;48.142;16.290;2022-08-03T06:10:41;22.30;67.70
14095;DHT22;18096;48.142;16.290;2022-08-03T06:13:07;22.40;67.10
14095;DHT22;18096;48.142;16.290;2022-08-03T06:15:32;22.50;66.80
14095;DHT22;18096;48.142;16.290;2022-08-03T06:17:59;22.50;66.30
14095;DHT22;18096;48.142;16.290;2022-08-03T06:20:25;22.60;66.10
14095;DHT22;18096;48.142;16.290;2022-08-03T06:22:51;22.60;66.00
14095;DHT22;18096;48.142;16.290;2022-08-03T06:25:16;22.70;65.40
14095;DHT22;18096;48.142;16.290;2022-08-03T06:27:43;22.70;65.70
14095;DHT22;18096;48.142;16.290;2022-08-03T06:30:10;22.80;65.10
14095;DHT22;18096;48.142;16.290;2022-08-03T06:32:37;22.80;66.00
14095;DHT22;18096;48.142;16.290;2022-08-03T06:35:04;22.90;67.10
14095;DHT22;18096;48.142;16.290;2022-08-03T06:37:44;23.00;66.70
14095;DHT22;18096;48.142;16.290;2022-08-03T06:40:17;23.10;66.20
14095;DHT22;18096;48.142;16.290;2022-08-03T06:42:43;23.20;65.30
14095;DHT22;18096;48.142;16.290;2022-08-03T06:45:10;23.30;64.90
14095;DHT22;18096;48.142;16.290;2022-08-03T06:47:37;23.40;64.50
14095;DHT22;18096;48.142;16.290;2022-08-03T06:50:06;23.40;64.00
14095;DHT22;18096;48.142;16.290;2022-08-03T06:52:33;23.50;64.20
14095;DHT22;18096;48.142;16.290;2022-08-03T06:54:59;23.60;63.30
14095;DHT22;18096;48.142;16.290;2022-08-03T06:57:25;23.60;63.70
14095;DHT22;18096;48.142;16.290;2022-08-03T06:59:50;23.60;64.20
14095;DHT22;18096;48.142;16.290;2022-08-03T07:02:16;23.70;63.80
14095;DHT22;18096;48.142;16.290;2022-08-03T07:04:48;23.80;63.60
14095;DHT22;18096;48.142;16.290;2022-08-03T07:07:13;23.80;63.10
14095;DHT22;18096;48.142;16.290;2022-08-03T07:09:39;23.90;63.70
14095;DHT22;18096;48.142;16.290;2022-08-03T07:12:05;23.90;62.70
14095;DHT22;18096;48.142;16.290;2022-08-03T07:14:31;23.90;62.60
14095;DHT22;18096;48.142;16.290;2022-08-03T07:16:56;24.00;63.70
14095;DHT22;18096;48.142;16.290;2022-08-03T07:19:22;24.10;63.00
14095;DHT22;18096;48.142;16.290;2022-08-03T07:21:48;24.10;63.30
14095;DHT22;18096;48.142;16.290;2022-08-03T07:24:13;24.20;63.50
14095;DHT22;18096;48.142;16.290;2022-08-03T07:26:39;24.20;63.60
14095;DHT22;18096;48.142;16.290;2022-08-03T07:29:05;24.30;62.90
14095;DHT22;18096;48.142;16.290;2022-08-03T07:31:30;24.30;62.40
14095;DHT22;18096;48.142;16.290;2022-08-03T07:33:56;24.40;63.00
14095;DHT22;18096;48.142;16.290;2022-08-03T07:36:21;24.40;62.60
14095;DHT22;18096;48.142;16.290;2022-08-03T07:38:49;24.40;60.00
14095;DHT22;18096;48.142;16.290;2022-08-03T07:41:15;24.40;60.10
14095;DHT22;18096;48.142;16.290;2022-08-03T07:43:40;24.50;61.70
14095;DHT22;18096;48.142;16.290;2022-08-03T07:46:06;24.60;62.00
14095;DHT22;18096;48.142;16.290;2022-08-03T07:48:32;24.60;61.40
14095;DHT22;18096;48.142;16.290;2022-08-03T07:50:57;24.60;61.70
14095;DHT22;18096;48.142;16.290;2022-08-03T07:53:23;24.70;61.90
14095;DHT22;18096;48.142;16.290;2022-08-03T07:55:49;24.70;60.50
14095;DHT22;18096;48.142;16.290;2022-08-03T07:58:14;24.70;59.40
14095;DHT22;18096;48.142;16.290;2022-08-03T08:00:41;24.80;59.70
14095;DHT22;18096;48.142;16.290;2022-08-03T08:03:09;24.80;60.00
14095;DHT22;18096;48.142;16.290;2022-08-03T08:05:35;24.90;60.00
14095;DHT22;18096;48.142;16.290;2022-08-03T08:08:02;24.90;60.10
14095;DHT22;18096;48.142;16.290;2022-08-03T08:10:28;25.00;60.00
14095;DHT22;18096;48.142;16.290;2022-08-03T08:12:54;25.00;60.00
14095;DHT22;18096;48.142;16.290;2022-08-03T08:15:20;25.00;60.30
14095;DHT22;18096;48.142;16.290;2022-08-03T08:17:48;25.00;57.50
14095;DHT22;18096;48.142;16.290;2022-08-03T08:20:20;25.10;58.00
14095;DHT22;18096;48.142;16.290;2022-08-03T08:22:46;25.10;59.10
14095;DHT22;18096;48.142;16.290;2022-08-03T08:25:11;25.20;58.20
14095;DHT22;18096;48.142;16.290;2022-08-03T08:27:55;25.20;57.50
14095;DHT22;18096;48.142;16.290;2022-08-03T08:30:22;25.20;57.30
14095;DHT22;18096;48.142;16.290;2022-08-03T08:32:49;25.30;57.70
14095;DHT22;18096;48.142;16.290;2022-08-03T08:35:15;25.30;58.20
14095;DHT22;18096;48.142;16.290;2022-08-03T08:37:41;25.30;58.20
14095;DHT22;18096;48.142;16.290;2022-08-03T08:40:08;25.30;58.10
14095;DHT22;18096;48.142;16.290;2022-08-03T08:42:36;25.40;58.60
14095;DHT22;18096;48.142;16.290;2022-08-03T08:45:03;25.40;58.60
14095;DHT22;18096;48.142;16.290;2022-08-03T08:47:31;25.40;58.10
14095;DHT22;18096;48.142;16.290;2022-08-03T08:49:58;25.40;56.80
14095;DHT22;18096;48.142;16.290;2022-08-03T08:52:26;25.50;56.40
14095;DHT22;18096;48.142;16.290;2022-08-03T08:54:58;25.50;55.60
14095;DHT22;18096;48.142;16.290;2022-08-03T08:57:29;25.50;54.40
14095;DHT22;18096;48.142;16.290;2022-08-03T08:59:56;25.60;55.80
14095;DHT22;18096;48.142;16.290;2022-08-03T09:02:23;25.60;54.00
14095;DHT22;18096;48.142;16.290;2022-08-03T09:04:50;25.70;54.40
14095;DHT22;18096;48.142;16.290;2022-08-03T09:07:16;25.70;55.00
14095;DHT22;18096;48.142;16.290;2022-08-03T09:09:42;25.70;54.60
14095;DHT22;18096;48.142;16.290;2022-08-03T09:12:08;25.80;54.20
14095;DHT22;18096;48.142;16.290;2022-08-03T09:14:34;25.90;53.50
14095;DHT22;18096;48.142;16.290;2022-08-03T09:17:01;25.90;53.60
14095;DHT22;18096;48.142;16.290;2022-08-03T09:19:28;26.00;54.10
14095;DHT22;18096;48.142;16.290;2022-08-03T09:22:15;26.00;54.10
14095;DHT22;18096;48.142;16.290;2022-08-03T09:24:56;26.00;53.40
14095;DHT22;18096;48.142;16.290;2022-08-03T09:27:22;26.00;52.90
14095;DHT22;18096;48.142;16.290;2022-08-03T09:29:49;26.10;53.80
14095;DHT22;18096;48.142;16.290;2022-08-03T09:32:21;26.10;53.20
14095;DHT22;18096;48.142;16.290;2022-08-03T09:34:49;26.10;53.40
14095;DHT22;18096;48.142;16.290;2022-08-03T09:37:17;26.20;53.80
14095;DHT22;18096;48.142;16.290;2022-08-03T09:39:43;26.20;52.80
14095;DHT22;18096;48.142;16.290;2022-08-03T09:42:11;26.20;52.90
14095;DHT22;18096;48.142;16.290;2022-08-03T09:44:39;26.20;52.90
14095;DHT22;18096;48.142;16.290;2022-08-03T09:47:07;26.20;52.20
14095;DHT22;18096;48.142;16.290;2022-08-03T09:49:35;26.30;52.20
14095;DHT22;18096;48.142;16.290;2022-08-03T09:52:14;26.30;51.50
14095;DHT22;18096;48.142;16.290;2022-08-03T09:54:41;26.30;48.50
14095;DHT22;18096;48.142;16.290;2022-08-03T09:57:07;26.40;47.10
14095;DHT22;18096;48.142;16.290;2022-08-03T09:59:33;26.40;46.30
14095;DHT22;18096;48.142;16.290;2022-08-03T10:01:59;26.50;46.90
14095;DHT22;18096;48.142;16.290;2022-08-03T10:04:25;26.60;48.10
14095;DHT22;18096;48.142;16.290;2022-08-03T10:07:08;26.60;46.00
14095;DHT22;18096;48.142;16.290;2022-08-03T10:09:36;26.70;46.30
14095;DHT22;18096;48.142;16.290;2022-08-03T10:14:36;26.70;46.70
14095;DHT22;18096;48.142;16.290;2022-08-03T10:17:02;26.70;47.10
14095;DHT22;18096;48.142;16.290;2022-08-03T10:19:28;26.70;47.20
14095;DHT22;18096;48.142;16.290;2022-08-03T10:22:02;26.70;46.90
14095;DHT22;18096;48.142;16.290;2022-08-03T10:24:29;26.80;46.20
14095;DHT22;18096;48.142;16.290;2022-08-03T10:27:07;26.80;45.40
14095;DHT22;18096;48.142;16.290;2022-08-03T10:29:37;26.80;45.20
14095;DHT22;18096;48.142;16.290;2022-08-03T10:32:17;26.80;45.60
14095;DHT22;18096;48.142;16.290;2022-08-03T10:34:44;26.90;45.80
14095;DHT22;18096;48.142;16.290;2022-08-03T10:37:11;26.90;45.50
14095;DHT22;18096;48.142;16.290;2022-08-03T10:39:41;27.00;44.70
14095;DHT22;18096;48.142;16.290;2022-08-03T10:42:22;27.10;44.00
14095;DHT22;18096;48.142;16.290;2022-08-03T10:44:49;27.10;43.60
14095;DHT22;18096;48.142;16.290;2022-08-03T10:47:17;27.10;43.40
14095;DHT22;18096;48.142;16.290;2022-08-03T10:49:43;27.10;42.80
14095;DHT22;18096;48.142;16.290;2022-08-03T10:52:11;27.20;41.00
14095;DHT22;18096;48.142;16.290;2022-08-03T11:00:18;27.30;38.30
14095;DHT22;18096;48.142;16.290;2022-08-03T11:03:03;27.30;38.60
14095;DHT22;18096;48.142;16.290;2022-08-03T11:05:32;27.30;38.00
14095;DHT22;18096;48.142;16.290;2022-08-03T11:08:29;27.30;38.80
14095;DHT22;18096;48.142;16.290;2022-08-03T11:11:01;27.30;39.10
14095;DHT22;18096;48.142;16.290;2022-08-03T11:13:28;27.30;38.00
14095;DHT22;18096;48.142;16.290;2022-08-03T11:15:59;27.40;38.30
14095;DHT22;18096;48.142;16.290;2022-08-03T11:18:25;27.50;37.80
14095;DHT22;18096;48.142;16.290;2022-08-03T11:20:56;27.50;38.10
14095;DHT22;18096;48.142;16.290;2022-08-03T11:23:45;27.50;37.90
14095;DHT22;18096;48.142;16.290;2022-08-03T11:26:16;27.60;39.50
14095;DHT22;18096;48.142;16.290;2022-08-03T11:28:45;27.60;39.60
14095;DHT22;18096;48.142;16.290;2022-08-03T11:34:08;27.60;39.50
14095;DHT22;18096;48.142;16.290;2022-08-03T11:39:52;27.60;39.60
14095;DHT22;18096;48.142;16.290;2022-08-03T11:47:17;27.80;37.60
14095;DHT22;18096;48.142;16.290;2022-08-03T11:49:46;27.90;36.80
14095;DHT22;18096;48.142;16.290;2022-08-03T11:52:12;27.90;36.20
14095;DHT22;18096;48.142;16.290;2022-08-03T11:54:38;27.90;35.50
14095;DHT22;18096;48.142;16.290;2022-08-03T11:57:05;28.00;35.20
14095;DHT22;18096;48.142;16.290;2022-08-03T11:59:31;28.00;35.70
14095;DHT22;18096;48.142;16.290;2022-08-03T12:02:11;27.90;35.30
14095;DHT22;18096;48.142;16.290;2022-08-03T12:04:51;28.00;35.80
14095;DHT22;18096;48.142;16.290;2022-08-03T12:07:17;28.00;35.80
14095;DHT22;18096;48.142;16.290;2022-08-03T12:10:10;28.00;35.90
14095;DHT22;18096;48.142;16.290;2022-08-03T12:12:36;28.10;35.00
14095;DHT22;18096;48.142;16.290;2022-08-03T12:15:03;28.10;34.50
14095;DHT22;18096;48.142;16.290;2022-08-03T12:17:36;28.10;34.70
14095;DHT22;18096;48.142;16.290;2022-08-03T12:20:03;28.10;35.30
14095;DHT22;18096;48.142;16.290;2022-08-03T12:22:34;28.10;35.00
14095;DHT22;18096;48.142;16.290;2022-08-03T12:25:00;28.10;34.80
14095;DHT22;18096;48.142;16.290;2022-08-03T12:27:26;28.10;35.60
14095;DHT22;18096;48.142;16.290;2022-08-03T12:29:55;28.10;36.00
14095;DHT22;18096;48.142;16.290;2022-08-03T12:32:20;28.20;35.90
14095;DHT22;18096;48.142;16.290;2022-08-03T12:34:48;28.20;36.20
14095;DHT22;18096;48.142;16.290;2022-08-03T12:37:21;28.30;35.30
14095;DHT22;18096;48.142;16.290;2022-08-03T12:39:58;28.40;35.00
14095;DHT22;18096;48.142;16.290;2022-08-03T12:42:34;28.50;35.30
14095;DHT22;18096;48.142;16.290;2022-08-03T12:45:16;28.60;35.00
14095;DHT22;18096;48.142;16.290;2022-08-03T12:48:00;28.60;33.80
14095;DHT22;18096;48.142;16.290;2022-08-03T12:50:31;28.60;33.00
14095;DHT22;18096;48.142;16.290;2022-08-03T12:53:02;28.70;32.70
14095;DHT22;18096;48.142;16.290;2022-08-03T12:55:29;28.60;31.70
14095;DHT22;18096;48.142;16.290;2022-08-03T12:57:59;28.60;31.60
14095;DHT22;18096;48.142;16.290;2022-08-03T13:00:25;28.60;31.70
14095;DHT22;18096;48.142;16.290;2022-08-03T13:03:04;28.60;31.40
14095;DHT22;18096;48.142;16.290;2022-08-03T13:05:31;28.60;32.30
14095;DHT22;18096;48.142;16.290;2022-08-03T13:07:57;28.60;32.70
14095;DHT22;18096;48.142;16.290;2022-08-03T13:10:31;28.60;30.80
14095;DHT22;18096;48.142;16.290;2022-08-03T13:12:57;28.60;31.50
14095;DHT22;18096;48.142;16.290;2022-08-03T13:15:25;28.60;32.80
14095;DHT22;18096;48.142;16.290;2022-08-03T13:17:53;28.60;33.40
14095;DHT22;18096;48.142;16.290;2022-08-03T13:20:20;28.70;33.90
14095;DHT22;18096;48.142;16.290;2022-08-03T13:22:46;28.60;33.80
14095;DHT22;18096;48.142;16.290;2022-08-03T13:25:12;28.60;32.80
14095;DHT22;18096;48.142;16.290;2022-08-03T13:27:38;28.70;34.20
14095;DHT22;18096;48.142;16.290;2022-08-03T13:30:05;28.80;35.30
14095;DHT22;18096;48.142;16.290;2022-08-03T13:32:32;28.80;35.70
14095;DHT22;18096;48.142;16.290;2022-08-03T13:34:58;28.80;36.20
14095;DHT22;18096;48.142;16.290;2022-08-03T13:37:24;28.80;35.40
14095;DHT22;18096;48.142;16.290;2022-08-03T13:39:49;28.90;35.30
14095;DHT22;18096;48.142;16.290;2022-08-03T13:42:15;28.90;35.30
14095;DHT22;18096;48.142;16.290;2022-08-03T13:44:41;29.00;35.50
14095;DHT22;18096;48.142;16.290;2022-08-03T13:47:07;29.00;35.20
14095;DHT22;18096;48.142;16.290;2022-08-03T13:49:33;29.00;34.70
14095;DHT22;18096;48.142;16.290;2022-08-03T13:51:59;29.00;34.80
14095;DHT22;18096;48.142;16.290;2022-08-03T13:54:25;29.00;34.70
14095;DHT22;18096;48.142;16.290;2022-08-03T13:56:51;28.90;35.00
14095;DHT22;18096;48.142;16.290;2022-08-03T13:59:23;28.90;34.90
14095;DHT22;18096;48.142;16.290;2022-08-03T14:01:50;28.90;35.00
14095;DHT22;18096;48.142;16.290;2022-08-03T14:04:16;29.00;34.90
14095;DHT22;18096;48.142;16.290;2022-08-03T14:06:42;29.00;35.10
14095;DHT22;18096;48.142;16.290;2022-08-03T14:09:14;29.00;35.10
14095;DHT22;18096;48.142;16.290;2022-08-03T14:11:40;29.00;35.20
14095;DHT22;18096;48.142;16.290;2022-08-03T14:14:06;29.00;35.60
14095;DHT22;18096;48.142;16.290;2022-08-03T14:16:32;28.90;35.20
14095;DHT22;18096;48.142;16.290;2022-08-03T14:18:57;29.00;36.60
14095;DHT22;18096;48.142;16.290;2022-08-03T14:21:23;29.00;34.80
14095;DHT22;18096;48.142;16.290;2022-08-03T14:23:49;29.10;33.80
14095;DHT22;18096;48.142;16.290;2022-08-03T14:26:15;29.20;34.00
14095;DHT22;18096;48.142;16.290;2022-08-03T14:28:42;29.20;33.90
14095;DHT22;18096;48.142;16.290;2022-08-03T14:31:08;29.20;34.10
14095;DHT22;18096;48.142;16.290;2022-08-03T14:33:34;29.20;34.80
14095;DHT22;18096;48.142;16.290;2022-08-03T14:36:00;29.20;33.30
14095;DHT22;18096;48.142;16.290;2022-08-03T14:38:25;29.30;32.70
14095;DHT22;18096;48.142;16.290;2022-08-03T14:40:51;29.40;33.00
14095;DHT22;18096;48.142;16.290;2022-08-03T14:43:17;29.40;33.20
14095;DHT22;18096;48.142;16.290;2022-08-03T14:45:46;29.40;33.30
14095;DHT22;18096;48.142;16.290;2022-08-03T14:48:12;29.50;32.20
14095;DHT22;18096;48.142;16.290;2022-08-03T14:50:38;29.50;31.90
14095;DHT22;18096;48.142;16.290;2022-08-03T14:53:04;29.60;31.30
14095;DHT22;18096;48.142;16.290;2022-08-03T14:55:29;29.60;31.60
14095;DHT22;18096;48.142;16.290;2022-08-03T14:57:55;29.70;32.30
14095;DHT22;18096;48.142;16.290;2022-08-03T15:00:21;29.70;31.90
14095;DHT22;18096;48.142;16.290;2022-08-03T15:02:46;29.60;32.00
14095;DHT22;18096;48.142;16.290;2022-08-03T15:05:12;29.60;32.90
14095;DHT22;18096;48.142;16.290;2022-08-03T15:07:39;29.60;33.50
14095;DHT22;18096;48.142;16.290;2022-08-03T15:10:05;29.60;32.20
14095;DHT22;18096;48.142;16.290;2022-08-03T15:12:31;29.50;32.30
14095;DHT22;18096;48.142;16.290;2022-08-03T15:14:57;29.60;32.70
14095;DHT22;18096;48.142;16.290;2022-08-03T15:17:22;29.60;32.70
14095;DHT22;18096;48.142;16.290;2022-08-03T15:19:48;29.60;31.90
14095;DHT22;18096;48.142;16.290;2022-08-03T15:22:14;29.70;31.90
14095;DHT22;18096;48.142;16.290;2022-08-03T15:24:41;29.60;31.70
14095;DHT22;18096;48.142;16.290;2022-08-03T15:27:07;29.70;32.60
14095;DHT22;18096;48.142;16.290;2022-08-03T15:29:33;29.70;31.80
14095;DHT22;18096;48.142;16.290;2022-08-03T15:31:59;29.70;31.60
14095;DHT22;18096;48.142;16.290;2022-08-03T15:34:24;29.70;31.70
14095;DHT22;18096;48.142;16.290;2022-08-03T15:36:50;29.70;32.00
14095;DHT22;18096;48.142;16.290;2022-08-03T15:39:15;29.70;31.80
14095;DHT22;18096;48.142;16.290;2022-08-03T15:41:41;29.70;31.70
14095;DHT22;18096;48.142;16.290;2022-08-03T15:44:07;29.70;31.60
14095;DHT22;18096;48.142;16.290;2022-08-03T15:46:32;29.70;31.50
14095;DHT22;18096;48.142;16.290;2022-08-03T15:48:58;29.80;31.70